Henderson, Nebraska
Current Conditions -  °F | °C
As of 11:55 AM on Thursday 30 Oct 2014 (Local Time) from KAUH Reporting Station
Clear Clear  
Wind Chill: 59°   Ceiling: Unl
Heat Index: 59°   Visibility: 10mi
Dew Point: 33°   Wind: 24mph
Humidity: 38%   Direction: 330°NNW
Pressure: 30.16"   Gusts: NA
Location:  40.78°N, 97.81°W
Report Text: KAUH 301655Z AUTO 33021KT 10SM CLR 15/01 A3016 RMK AO2 T01510007
Loading
Personal Weather Stations






























Interactive Weather Map
Tropical Storm Tracking
New forecast layout! Learn more

10-Day Weather Forecast

Advertisements
Track Severe Weather on mobile